sensor_id;sensor_type;location;lat;lon;timestamp;P1;durP1;ratioP1;P2;durP2;ratioP2
15645;SDS011;7922;43.622;1.476;2023-05-08T00:00:30;11.43;;;3.70;;
15645;SDS011;7922;43.622;1.476;2023-05-08T00:02:56;12.57;;;3.53;;
15645;SDS011;7922;43.622;1.476;2023-05-08T00:05:21;11.00;;;3.43;;
15645;SDS011;7922;43.622;1.476;2023-05-08T00:07:46;11.70;;;3.60;;
15645;SDS011;7922;43.622;1.476;2023-05-08T00:10:12;9.53;;;3.13;;
15645;SDS011;7922;43.622;1.476;2023-05-08T00:12:37;11.90;;;3.47;;
15645;SDS011;7922;43.622;1.476;2023-05-08T00:15:03;14.20;;;3.47;;
15645;SDS011;7922;43.622;1.476;2023-05-08T00:17:29;15.20;;;3.77;;
15645;SDS011;7922;43.622;1.476;2023-05-08T00:19:54;10.87;;;3.57;;
15645;SDS011;7922;43.622;1.476;2023-05-08T00:22:20;12.40;;;3.57;;
15645;SDS011;7922;43.622;1.476;2023-05-08T00:24:45;10.17;;;3.40;;
15645;SDS011;7922;43.622;1.476;2023-05-08T00:27:11;11.77;;;3.43;;
15645;SDS011;7922;43.622;1.476;2023-05-08T00:29:36;8.47;;;3.43;;
15645;SDS011;7922;43.622;1.476;2023-05-08T00:32:01;13.77;;;3.77;;
15645;SDS011;7922;43.622;1.476;2023-05-08T00:34:26;12.87;;;3.93;;
15645;SDS011;7922;43.622;1.476;2023-05-08T00:36:52;11.03;;;3.30;;
15645;SDS011;7922;43.622;1.476;2023-05-08T00:39:17;12.60;;;3.87;;
15645;SDS011;7922;43.622;1.476;2023-05-08T00:41:42;11.93;;;3.67;;
15645;SDS011;7922;43.622;1.476;2023-05-08T00:44:08;12.40;;;3.97;;
15645;SDS011;7922;43.622;1.476;2023-05-08T00:46:34;9.83;;;3.47;;
15645;SDS011;7922;43.622;1.476;2023-05-08T00:49:00;10.63;;;3.50;;
15645;SDS011;7922;43.622;1.476;2023-05-08T00:51:26;13.20;;;3.80;;
15645;SDS011;7922;43.622;1.476;2023-05-08T00:53:52;10.23;;;3.83;;
15645;SDS011;7922;43.622;1.476;2023-05-08T00:56:17;12.53;;;3.47;;
15645;SDS011;7922;43.622;1.476;2023-05-08T00:58:44;13.23;;;3.83;;
15645;SDS011;7922;43.622;1.476;2023-05-08T01:01:09;12.13;;;3.40;;
15645;SDS011;7922;43.622;1.476;2023-05-08T01:03:35;10.00;;;3.47;;
15645;SDS011;7922;43.622;1.476;2023-05-08T01:06:02;14.40;;;3.83;;
15645;SDS011;7922;43.622;1.476;2023-05-08T01:08:27;10.00;;;3.57;;
15645;SDS011;7922;43.622;1.476;2023-05-08T01:15:56;11.33;;;3.43;;
15645;SDS011;7922;43.622;1.476;2023-05-08T01:18:41;13.20;;;4.23;;
15645;SDS011;7922;43.622;1.476;2023-05-08T01:34:58;12.80;;;4.23;;
15645;SDS011;7922;43.622;1.476;2023-05-08T01:37:39;9.17;;;2.93;;
15645;SDS011;7922;43.622;1.476;2023-05-08T01:40:16;10.40;;;3.57;;
15645;SDS011;7922;43.622;1.476;2023-05-08T01:45:53;10.97;;;3.20;;
15645;SDS011;7922;43.622;1.476;2023-05-08T01:48:29;12.03;;;4.33;;
15645;SDS011;7922;43.622;1.476;2023-05-08T01:51:04;10.73;;;3.87;;
15645;SDS011;7922;43.622;1.476;2023-05-08T01:53:36;7.63;;;2.73;;
15645;SDS011;7922;43.622;1.476;2023-05-08T01:56:10;12.27;;;3.97;;
15645;SDS011;7922;43.622;1.476;2023-05-08T01:58:38;15.10;;;3.90;;
15645;SDS011;7922;43.622;1.476;2023-05-08T02:01:05;8.70;;;3.43;;
15645;SDS011;7922;43.622;1.476;2023-05-08T02:03:32;12.07;;;3.63;;
15645;SDS011;7922;43.622;1.476;2023-05-08T02:05:59;14.00;;;3.60;;
15645;SDS011;7922;43.622;1.476;2023-05-08T02:08:26;10.63;;;3.17;;
15645;SDS011;7922;43.622;1.476;2023-05-08T02:10:53;9.43;;;3.97;;
15645;SDS011;7922;43.622;1.476;2023-05-08T02:13:21;17.00;;;3.27;;
15645;SDS011;7922;43.622;1.476;2023-05-08T02:15:47;11.13;;;3.00;;
15645;SDS011;7922;43.622;1.476;2023-05-08T02:18:14;10.63;;;4.07;;
15645;SDS011;7922;43.622;1.476;2023-05-08T02:20:42;10.90;;;4.33;;
15645;SDS011;7922;43.622;1.476;2023-05-08T02:23:08;10.67;;;3.67;;
15645;SDS011;7922;43.622;1.476;2023-05-08T02:25:35;13.10;;;3.27;;
15645;SDS011;7922;43.622;1.476;2023-05-08T02:28:01;9.77;;;3.67;;
15645;SDS011;7922;43.622;1.476;2023-05-08T02:30:27;11.87;;;3.40;;
15645;SDS011;7922;43.622;1.476;2023-05-08T02:32:53;12.97;;;3.77;;
15645;SDS011;7922;43.622;1.476;2023-05-08T02:35:20;9.17;;;3.93;;
15645;SDS011;7922;43.622;1.476;2023-05-08T02:37:51;8.73;;;2.90;;
15645;SDS011;7922;43.622;1.476;2023-05-08T02:40:19;12.17;;;3.57;;
15645;SDS011;7922;43.622;1.476;2023-05-08T02:42:46;8.87;;;3.43;;
15645;SDS011;7922;43.622;1.476;2023-05-08T02:45:12;13.03;;;3.93;;
15645;SDS011;7922;43.622;1.476;2023-05-08T02:47:41;14.93;;;4.20;;
15645;SDS011;7922;43.622;1.476;2023-05-08T02:50:21;12.20;;;4.23;;
15645;SDS011;7922;43.622;1.476;2023-05-08T02:52:51;14.40;;;3.93;;
15645;SDS011;7922;43.622;1.476;2023-05-08T02:55:27;11.50;;;3.70;;
15645;SDS011;7922;43.622;1.476;2023-05-08T02:58:23;11.40;;;3.87;;
15645;SDS011;7922;43.622;1.476;2023-05-08T03:00:59;16.13;;;4.30;;
15645;SDS011;7922;43.622;1.476;2023-05-08T03:03:34;10.87;;;3.53;;
15645;SDS011;7922;43.622;1.476;2023-05-08T03:06:06;11.37;;;3.57;;
15645;SDS011;7922;43.622;1.476;2023-05-08T03:08:35;10.63;;;3.47;;
15645;SDS011;7922;43.622;1.476;2023-05-08T03:11:03;14.87;;;3.63;;
15645;SDS011;7922;43.622;1.476;2023-05-08T03:13:33;14.80;;;3.60;;
15645;SDS011;7922;43.622;1.476;2023-05-08T03:16:00;11.83;;;3.43;;
15645;SDS011;7922;43.622;1.476;2023-05-08T03:18:35;14.57;;;3.70;;
15645;SDS011;7922;43.622;1.476;2023-05-08T03:21:03;12.43;;;3.97;;
15645;SDS011;7922;43.622;1.476;2023-05-08T03:23:29;12.40;;;4.20;;
15645;SDS011;7922;43.622;1.476;2023-05-08T03:25:59;14.13;;;3.70;;
15645;SDS011;7922;43.622;1.476;2023-05-08T03:28:25;12.33;;;4.37;;
15645;SDS011;7922;43.622;1.476;2023-05-08T03:30:51;11.43;;;3.33;;
15645;SDS011;7922;43.622;1.476;2023-05-08T03:33:17;11.83;;;3.83;;
15645;SDS011;7922;43.622;1.476;2023-05-08T03:35:45;13.87;;;4.03;;
15645;SDS011;7922;43.622;1.476;2023-05-08T03:38:12;11.53;;;3.73;;
15645;SDS011;7922;43.622;1.476;2023-05-08T03:40:37;15.00;;;3.83;;
15645;SDS011;7922;43.622;1.476;2023-05-08T03:43:04;14.67;;;4.00;;
15645;SDS011;7922;43.622;1.476;2023-05-08T03:45:32;11.47;;;3.33;;
15645;SDS011;7922;43.622;1.476;2023-05-08T03:47:59;10.07;;;3.63;;
15645;SDS011;7922;43.622;1.476;2023-05-08T03:50:27;10.63;;;3.43;;
15645;SDS011;7922;43.622;1.476;2023-05-08T03:52:53;12.80;;;3.80;;
15645;SDS011;7922;43.622;1.476;2023-05-08T03:55:19;11.43;;;4.27;;
15645;SDS011;7922;43.622;1.476;2023-05-08T03:57:49;16.70;;;3.83;;
15645;SDS011;7922;43.622;1.476;2023-05-08T04:03:15;12.10;;;3.60;;
15645;SDS011;7922;43.622;1.476;2023-05-08T04:08:33;13.03;;;3.40;;
15645;SDS011;7922;43.622;1.476;2023-05-08T04:11:29;11.70;;;3.47;;
15645;SDS011;7922;43.622;1.476;2023-05-08T04:13:57;11.23;;;3.93;;
15645;SDS011;7922;43.622;1.476;2023-05-08T04:16:27;16.23;;;4.80;;
15645;SDS011;7922;43.622;1.476;2023-05-08T04:18:59;12.60;;;3.40;;
15645;SDS011;7922;43.622;1.476;2023-05-08T04:21:26;10.67;;;3.33;;
15645;SDS011;7922;43.622;1.476;2023-05-08T04:23:53;10.63;;;3.40;;
15645;SDS011;7922;43.622;1.476;2023-05-08T04:26:21;12.43;;;4.07;;
15645;SDS011;7922;43.622;1.476;2023-05-08T04:28:46;12.77;;;4.27;;
15645;SDS011;7922;43.622;1.476;2023-05-08T04:31:15;13.87;;;4.07;;
15645;SDS011;7922;43.622;1.476;2023-05-08T04:33:42;11.90;;;3.87;;
15645;SDS011;7922;43.622;1.476;2023-05-08T04:36:11;10.13;;;3.73;;
15645;SDS011;7922;43.622;1.476;2023-05-08T04:38:37;12.77;;;4.07;;
15645;SDS011;7922;43.622;1.476;2023-05-08T04:41:03;12.37;;;4.10;;
15645;SDS011;7922;43.622;1.476;2023-05-08T04:43:29;9.27;;;3.20;;
15645;SDS011;7922;43.622;1.476;2023-05-08T04:45:54;11.47;;;4.00;;
15645;SDS011;7922;43.622;1.476;2023-05-08T04:48:19;10.40;;;3.60;;
15645;SDS011;7922;43.622;1.476;2023-05-08T04:50:45;13.20;;;3.83;;
15645;SDS011;7922;43.622;1.476;2023-05-08T04:53:10;10.93;;;3.60;;
15645;SDS011;7922;43.622;1.476;2023-05-08T04:55:35;13.17;;;4.13;;
15645;SDS011;7922;43.622;1.476;2023-05-08T04:58:00;10.73;;;3.43;;
15645;SDS011;7922;43.622;1.476;2023-05-08T05:00:26;12.40;;;3.63;;
15645;SDS011;7922;43.622;1.476;2023-05-08T05:02:51;8.20;;;3.47;;
15645;SDS011;7922;43.622;1.476;2023-05-08T05:05:16;11.50;;;3.40;;
15645;SDS011;7922;43.622;1.476;2023-05-08T05:07:42;9.37;;;3.87;;
15645;SDS011;7922;43.622;1.476;2023-05-08T05:10:07;10.20;;;3.83;;
15645;SDS011;7922;43.622;1.476;2023-05-08T05:12:33;10.30;;;3.40;;
15645;SDS011;7922;43.622;1.476;2023-05-08T05:14:58;7.67;;;3.77;;
15645;SDS011;7922;43.622;1.476;2023-05-08T05:17:23;10.53;;;3.10;;
15645;SDS011;7922;43.622;1.476;2023-05-08T05:19:48;11.97;;;3.97;;
15645;SDS011;7922;43.622;1.476;2023-05-08T05:22:14;10.27;;;3.60;;
15645;SDS011;7922;43.622;1.476;2023-05-08T05:24:39;14.97;;;4.40;;
15645;SDS011;7922;43.622;1.476;2023-05-08T05:27:04;10.77;;;3.30;;
15645;SDS011;7922;43.622;1.476;2023-05-08T05:29:29;9.13;;;3.90;;
15645;SDS011;7922;43.622;1.476;2023-05-08T05:31:55;12.33;;;3.57;;
15645;SDS011;7922;43.622;1.476;2023-05-08T05:34:20;12.87;;;3.53;;
15645;SDS011;7922;43.622;1.476;2023-05-08T05:36:45;9.17;;;3.53;;
15645;SDS011;7922;43.622;1.476;2023-05-08T05:39:10;10.57;;;3.60;;
15645;SDS011;7922;43.622;1.476;2023-05-08T05:41:36;16.10;;;3.50;;
15645;SDS011;7922;43.622;1.476;2023-05-08T05:44:01;8.93;;;3.17;;
15645;SDS011;7922;43.622;1.476;2023-05-08T05:46:26;8.43;;;3.10;;
15645;SDS011;7922;43.622;1.476;2023-05-08T05:48:52;6.57;;;3.27;;
15645;SDS011;7922;43.622;1.476;2023-05-08T05:51:17;8.90;;;3.23;;
15645;SDS011;7922;43.622;1.476;2023-05-08T05:53:42;9.57;;;3.27;;
15645;SDS011;7922;43.622;1.476;2023-05-08T05:56:08;14.57;;;3.83;;
15645;SDS011;7922;43.622;1.476;2023-05-08T05:58:33;10.30;;;3.10;;
15645;SDS011;7922;43.622;1.476;2023-05-08T06:00:58;12.30;;;3.80;;
15645;SDS011;7922;43.622;1.476;2023-05-08T06:03:23;7.43;;;2.90;;
15645;SDS011;7922;43.622;1.476;2023-05-08T06:05:49;10.20;;;3.37;;
15645;SDS011;7922;43.622;1.476;2023-05-08T06:08:14;10.93;;;3.17;;
15645;SDS011;7922;43.622;1.476;2023-05-08T06:10:39;6.57;;;2.90;;
15645;SDS011;7922;43.622;1.476;2023-05-08T06:13:04;10.33;;;2.90;;
15645;SDS011;7922;43.622;1.476;2023-05-08T06:15:30;8.13;;;2.60;;
15645;SDS011;7922;43.622;1.476;2023-05-08T06:17:55;5.83;;;2.47;;
15645;SDS011;7922;43.622;1.476;2023-05-08T06:20:20;4.57;;;2.10;;
15645;SDS011;7922;43.622;1.476;2023-05-08T06:22:45;7.03;;;2.80;;
15645;SDS011;7922;43.622;1.476;2023-05-08T06:25:11;7.67;;;2.33;;
15645;SDS011;7922;43.622;1.476;2023-05-08T06:27:36;5.47;;;2.30;;
15645;SDS011;7922;43.622;1.476;2023-05-08T06:30:02;5.93;;;2.43;;
15645;SDS011;7922;43.622;1.476;2023-05-08T06:32:28;5.33;;;2.47;;
15645;SDS011;7922;43.622;1.476;2023-05-08T06:34:54;4.83;;;2.43;;
15645;SDS011;7922;43.622;1.476;2023-05-08T06:37:19;5.10;;;2.00;;
15645;SDS011;7922;43.622;1.476;2023-05-08T06:39:44;6.13;;;2.13;;
15645;SDS011;7922;43.622;1.476;2023-05-08T06:42:10;4.10;;;2.00;;
15645;SDS011;7922;43.622;1.476;2023-05-08T06:44:35;5.97;;;1.70;;
15645;SDS011;7922;43.622;1.476;2023-05-08T06:47:00;3.87;;;1.70;;
15645;SDS011;7922;43.622;1.476;2023-05-08T06:49:26;5.13;;;1.77;;
15645;SDS011;7922;43.622;1.476;2023-05-08T06:51:51;3.47;;;1.47;;
15645;SDS011;7922;43.622;1.476;2023-05-08T06:54:17;3.83;;;1.50;;
15645;SDS011;7922;43.622;1.476;2023-05-08T06:56:42;3.17;;;1.60;;
15645;SDS011;7922;43.622;1.476;2023-05-08T06:59:07;3.97;;;1.37;;
15645;SDS011;7922;43.622;1.476;2023-05-08T07:01:33;6.60;;;1.90;;
15645;SDS011;7922;43.622;1.476;2023-05-08T07:03:58;4.20;;;1.70;;
15645;SDS011;7922;43.622;1.476;2023-05-08T07:06:23;5.17;;;1.80;;
15645;SDS011;7922;43.622;1.476;2023-05-08T07:08:49;3.50;;;1.73;;
15645;SDS011;7922;43.622;1.476;2023-05-08T07:11:14;5.53;;;2.13;;
15645;SDS011;7922;43.622;1.476;2023-05-08T07:13:39;7.23;;;2.23;;
15645;SDS011;7922;43.622;1.476;2023-05-08T07:16:10;3.20;;;1.90;;
15645;SDS011;7922;43.622;1.476;2023-05-08T07:18:36;4.87;;;1.80;;
15645;SDS011;7922;43.622;1.476;2023-05-08T07:21:02;3.33;;;1.60;;
15645;SDS011;7922;43.622;1.476;2023-05-08T07:23:27;6.00;;;1.90;;
15645;SDS011;7922;43.622;1.476;2023-05-08T07:25:53;2.43;;;1.80;;
15645;SDS011;7922;43.622;1.476;2023-05-08T07:28:18;4.07;;;1.67;;
15645;SDS011;7922;43.622;1.476;2023-05-08T07:30:43;2.60;;;1.60;;
15645;SDS011;7922;43.622;1.476;2023-05-08T07:33:09;2.63;;;1.30;;
15645;SDS011;7922;43.622;1.476;2023-05-08T07:35:37;4.37;;;1.63;;
15645;SDS011;7922;43.622;1.476;2023-05-08T07:38:03;6.33;;;1.77;;
15645;SDS011;7922;43.622;1.476;2023-05-08T07:40:29;4.57;;;1.70;;
15645;SDS011;7922;43.622;1.476;2023-05-08T07:42:54;2.40;;;1.87;;
15645;SDS011;7922;43.622;1.476;2023-05-08T07:45:19;6.33;;;1.30;;
15645;SDS011;7922;43.622;1.476;2023-05-08T07:47:51;3.97;;;1.83;;
15645;SDS011;7922;43.622;1.476;2023-05-08T07:50:20;2.43;;;1.63;;
15645;SDS011;7922;43.622;1.476;2023-05-08T07:52:47;4.80;;;2.10;;
15645;SDS011;7922;43.622;1.476;2023-05-08T07:55:12;3.97;;;1.73;;
15645;SDS011;7922;43.622;1.476;2023-05-08T07:57:39;5.40;;;1.90;;
15645;SDS011;7922;43.622;1.476;2023-05-08T08:00:05;3.53;;;1.30;;
15645;SDS011;7922;43.622;1.476;2023-05-08T08:02:32;2.80;;;1.30;;
15645;SDS011;7922;43.622;1.476;2023-05-08T08:04:58;4.20;;;2.20;;
15645;SDS011;7922;43.622;1.476;2023-05-08T08:07:23;4.90;;;2.00;;
15645;SDS011;7922;43.622;1.476;2023-05-08T08:09:48;3.67;;;1.70;;
15645;SDS011;7922;43.622;1.476;2023-05-08T08:12:13;3.97;;;1.60;;
15645;SDS011;7922;43.622;1.476;2023-05-08T08:14:39;4.40;;;1.20;;
15645;SDS011;7922;43.622;1.476;2023-05-08T08:17:04;3.67;;;1.60;;
15645;SDS011;7922;43.622;1.476;2023-05-08T08:19:29;5.47;;;2.63;;
15645;SDS011;7922;43.622;1.476;2023-05-08T08:21:54;4.33;;;2.53;;
15645;SDS011;7922;43.622;1.476;2023-05-08T08:24:20;3.50;;;1.80;;
15645;SDS011;7922;43.622;1.476;2023-05-08T08:26:45;3.10;;;1.60;;
15645;SDS011;7922;43.622;1.476;2023-05-08T08:29:10;4.50;;;1.83;;
15645;SDS011;7922;43.622;1.476;2023-05-08T08:31:36;4.70;;;1.50;;
15645;SDS011;7922;43.622;1.476;2023-05-08T08:34:01;2.50;;;1.57;;
15645;SDS011;7922;43.622;1.476;2023-05-08T08:36:26;4.93;;;1.43;;
15645;SDS011;7922;43.622;1.476;2023-05-08T08:38:51;5.10;;;1.80;;
15645;SDS011;7922;43.622;1.476;2023-05-08T08:41:17;3.80;;;1.50;;
15645;SDS011;7922;43.622;1.476;2023-05-08T08:43:42;3.93;;;1.40;;
15645;SDS011;7922;43.622;1.476;2023-05-08T08:46:11;3.70;;;1.23;;
15645;SDS011;7922;43.622;1.476;2023-05-08T08:48:38;3.03;;;1.00;;
15645;SDS011;7922;43.622;1.476;2023-05-08T08:51:11;3.67;;;1.40;;
15645;SDS011;7922;43.622;1.476;2023-05-08T08:53:43;4.43;;;1.57;;
15645;SDS011;7922;43.622;1.476;2023-05-08T08:56:13;2.80;;;1.20;;
15645;SDS011;7922;43.622;1.476;2023-05-08T08:58:52;3.67;;;1.37;;
15645;SDS011;7922;43.622;1.476;2023-05-08T09:01:20;1.90;;;0.80;;
15645;SDS011;7922;43.622;1.476;2023-05-08T09:03:48;3.40;;;1.47;;
15645;SDS011;7922;43.622;1.476;2023-05-08T09:06:13;2.97;;;1.10;;
15645;SDS011;7922;43.622;1.476;2023-05-08T09:08:39;3.53;;;1.10;;
15645;SDS011;7922;43.622;1.476;2023-05-08T09:11:05;2.40;;;1.07;;
15645;SDS011;7922;43.622;1.476;2023-05-08T09:13:30;3.37;;;1.37;;
15645;SDS011;7922;43.622;1.476;2023-05-08T09:15:58;3.30;;;1.27;;
15645;SDS011;7922;43.622;1.476;2023-05-08T09:18:24;2.33;;;1.40;;
15645;SDS011;7922;43.622;1.476;2023-05-08T09:20:50;3.67;;;1.23;;
15645;SDS011;7922;43.622;1.476;2023-05-08T09:23:16;2.77;;;1.23;;
15645;SDS011;7922;43.622;1.476;2023-05-08T09:25:48;2.77;;;1.40;;
15645;SDS011;7922;43.622;1.476;2023-05-08T09:28:16;3.70;;;1.60;;
15645;SDS011;7922;43.622;1.476;2023-05-08T09:30:54;3.33;;;1.10;;
15645;SDS011;7922;43.622;1.476;2023-05-08T09:33:22;1.93;;;1.20;;
15645;SDS011;7922;43.622;1.476;2023-05-08T09:35:50;4.20;;;1.63;;
15645;SDS011;7922;43.622;1.476;2023-05-08T09:38:35;2.93;;;1.33;;
15645;SDS011;7922;43.622;1.476;2023-05-08T09:43:38;4.43;;;1.80;;
15645;SDS011;7922;43.622;1.476;2023-05-08T09:48:48;3.97;;;1.20;;
15645;SDS011;7922;43.622;1.476;2023-05-08T09:51:14;3.83;;;1.50;;
15645;SDS011;7922;43.622;1.476;2023-05-08T09:53:39;3.77;;;1.37;;
15645;SDS011;7922;43.622;1.476;2023-05-08T09:56:05;3.57;;;1.30;;
15645;SDS011;7922;43.622;1.476;2023-05-08T09:58:40;1.70;;;1.30;;
15645;SDS011;7922;43.622;1.476;2023-05-08T10:01:07;3.00;;;1.20;;
15645;SDS011;7922;43.622;1.476;2023-05-08T10:03:51;3.37;;;1.20;;
15645;SDS011;7922;43.622;1.476;2023-05-08T10:06:16;3.03;;;1.40;;
15645;SDS011;7922;43.622;1.476;2023-05-08T10:08:41;3.63;;;1.40;;
15645;SDS011;7922;43.622;1.476;2023-05-08T10:11:17;6.27;;;3.13;;
15645;SDS011;7922;43.622;1.476;2023-05-08T10:13:43;5.33;;;2.30;;
15645;SDS011;7922;43.622;1.476;2023-05-08T10:16:13;4.30;;;1.70;;
15645;SDS011;7922;43.622;1.476;2023-05-08T10:18:39;5.43;;;1.70;;
15645;SDS011;7922;43.622;1.476;2023-05-08T10:21:10;4.77;;;1.70;;
15645;SDS011;7922;43.622;1.476;2023-05-08T10:23:35;2.47;;;1.43;;
15645;SDS011;7922;43.622;1.476;2023-05-08T10:26:05;2.97;;;1.43;;
15645;SDS011;7922;43.622;1.476;2023-05-08T10:28:35;3.53;;;1.63;;
15645;SDS011;7922;43.622;1.476;2023-05-08T10:31:02;4.50;;;1.60;;
15645;SDS011;7922;43.622;1.476;2023-05-08T10:33:29;3.17;;;1.37;;
15645;SDS011;7922;43.622;1.476;2023-05-08T10:35:57;2.83;;;1.30;;
15645;SDS011;7922;43.622;1.476;2023-05-08T10:38:22;4.83;;;4.33;;
15645;SDS011;7922;43.622;1.476;2023-05-08T10:40:49;5.43;;;2.93;;
15645;SDS011;7922;43.622;1.476;2023-05-08T10:43:15;3.67;;;1.40;;
15645;SDS011;7922;43.622;1.476;2023-05-08T10:45:41;4.13;;;3.37;;
15645;SDS011;7922;43.622;1.476;2023-05-08T10:51:00;5.03;;;1.43;;
15645;SDS011;7922;43.622;1.476;2023-05-08T10:53:54;4.27;;;1.97;;
15645;SDS011;7922;43.622;1.476;2023-05-08T10:56:26;7.07;;;4.13;;
15645;SDS011;7922;43.622;1.476;2023-05-08T10:58:56;3.37;;;1.40;;
15645;SDS011;7922;43.622;1.476;2023-05-08T11:01:22;5.37;;;2.50;;
15645;SDS011;7922;43.622;1.476;2023-05-08T11:03:48;5.43;;;2.87;;
15645;SDS011;7922;43.622;1.476;2023-05-08T11:06:14;4.27;;;1.53;;
15645;SDS011;7922;43.622;1.476;2023-05-08T11:08:50;4.43;;;1.93;;
15645;SDS011;7922;43.622;1.476;2023-05-08T11:11:25;3.73;;;1.40;;
15645;SDS011;7922;43.622;1.476;2023-05-08T11:13:55;3.07;;;1.40;;
15645;SDS011;7922;43.622;1.476;2023-05-08T11:19:27;3.30;;;1.63;;
15645;SDS011;7922;43.622;1.476;2023-05-08T11:24:37;2.70;;;1.67;;
15645;SDS011;7922;43.622;1.476;2023-05-08T11:27:03;3.27;;;1.47;;
15645;SDS011;7922;43.622;1.476;2023-05-08T11:29:28;2.60;;;1.37;;
15645;SDS011;7922;43.622;1.476;2023-05-08T11:31:54;4.90;;;1.43;;
15645;SDS011;7922;43.622;1.476;2023-05-08T11:37:02;2.43;;;1.30;;
15645;SDS011;7922;43.622;1.476;2023-05-08T11:39:33;3.03;;;1.40;;
15645;SDS011;7922;43.622;1.476;2023-05-08T11:44:48;1.97;;;1.27;;
15645;SDS011;7922;43.622;1.476;2023-05-08T11:47:24;2.53;;;1.47;;
15645;SDS011;7922;43.622;1.476;2023-05-08T11:50:00;2.20;;;1.37;;
15645;SDS011;7922;43.622;1.476;2023-05-08T11:52:26;3.13;;;1.43;;
15645;SDS011;7922;43.622;1.476;2023-05-08T11:54:51;2.83;;;1.20;;
15645;SDS011;7922;43.622;1.476;2023-05-08T11:57:17;4.07;;;1.20;;
15645;SDS011;7922;43.622;1.476;2023-05-08T11:59:43;4.47;;;1.97;;
15645;SDS011;7922;43.622;1.476;2023-05-08T12:02:08;3.97;;;1.30;;
15645;SDS011;7922;43.622;1.476;2023-05-08T12:04:41;2.90;;;1.43;;
15645;SDS011;7922;43.622;1.476;2023-05-08T12:07:07;2.57;;;1.50;;
15645;SDS011;7922;43.622;1.476;2023-05-08T12:09:32;4.13;;;1.70;;
15645;SDS011;7922;43.622;1.476;2023-05-08T12:11:58;5.00;;;1.50;;
15645;SDS011;7922;43.622;1.476;2023-05-08T12:14:23;9.13;;;4.57;;
15645;SDS011;7922;43.622;1.476;2023-05-08T12:16:49;5.20;;;3.03;;
15645;SDS011;7922;43.622;1.476;2023-05-08T12:19:14;4.77;;;2.10;;
15645;SDS011;7922;43.622;1.476;2023-05-08T12:21:46;1.43;;;1.00;;
15645;SDS011;7922;43.622;1.476;2023-05-08T12:24:12;2.27;;;1.40;;
15645;SDS011;7922;43.622;1.476;2023-05-08T12:26:37;3.83;;;1.60;;
15645;SDS011;7922;43.622;1.476;2023-05-08T12:29:06;4.53;;;1.93;;
15645;SDS011;7922;43.622;1.476;2023-05-08T12:31:33;3.57;;;1.60;;
15645;SDS011;7922;43.622;1.476;2023-05-08T12:33:59;3.47;;;1.20;;
15645;SDS011;7922;43.622;1.476;2023-05-08T12:36:26;3.00;;;1.57;;
15645;SDS011;7922;43.622;1.476;2023-05-08T12:38:51;1.50;;;1.33;;
15645;SDS011;7922;43.622;1.476;2023-05-08T12:41:22;3.97;;;1.50;;
15645;SDS011;7922;43.622;1.476;2023-05-08T12:43:47;2.77;;;1.23;;
15645;SDS011;7922;43.622;1.476;2023-05-08T12:46:13;2.70;;;1.50;;
15645;SDS011;7922;43.622;1.476;2023-05-08T12:48:38;2.97;;;1.40;;
15645;SDS011;7922;43.622;1.476;2023-05-08T12:51:04;4.60;;;1.80;;
15645;SDS011;7922;43.622;1.476;2023-05-08T12:53:30;2.00;;;1.30;;
15645;SDS011;7922;43.622;1.476;2023-05-08T12:55:57;3.47;;;1.47;;
15645;SDS011;7922;43.622;1.476;2023-05-08T12:58:26;2.87;;;1.50;;
15645;SDS011;7922;43.622;1.476;2023-05-08T13:01:02;2.93;;;1.40;;
15645;SDS011;7922;43.622;1.476;2023-05-08T13:03:32;3.27;;;1.60;;
15645;SDS011;7922;43.622;1.476;2023-05-08T13:05:58;2.23;;;1.20;;
15645;SDS011;7922;43.622;1.476;2023-05-08T13:08:30;3.90;;;1.50;;
15645;SDS011;7922;43.622;1.476;2023-05-08T13:11:00;2.60;;;1.50;;
15645;SDS011;7922;43.622;1.476;2023-05-08T13:13:31;2.80;;;1.30;;
15645;SDS011;7922;43.622;1.476;2023-05-08T13:16:00;2.10;;;1.20;;
15645;SDS011;7922;43.622;1.476;2023-05-08T13:18:27;2.90;;;1.40;;
15645;SDS011;7922;43.622;1.476;2023-05-08T13:20:52;1.77;;;1.07;;
15645;SDS011;7922;43.622;1.476;2023-05-08T13:23:18;3.70;;;1.50;;
15645;SDS011;7922;43.622;1.476;2023-05-08T13:25:43;3.30;;;1.20;;
15645;SDS011;7922;43.622;1.476;2023-05-08T13:28:09;2.87;;;1.30;;
15645;SDS011;7922;43.622;1.476;2023-05-08T13:30:34;2.87;;;1.33;;
15645;SDS011;7922;43.622;1.476;2023-05-08T13:33:00;4.00;;;1.57;;
15645;SDS011;7922;43.622;1.476;2023-05-08T13:35:26;2.27;;;1.27;;
15645;SDS011;7922;43.622;1.476;2023-05-08T13:37:52;2.97;;;1.70;;
15645;SDS011;7922;43.622;1.476;2023-05-08T13:40:18;4.53;;;2.00;;
15645;SDS011;7922;43.622;1.476;2023-05-08T13:42:43;2.13;;;1.67;;
15645;SDS011;7922;43.622;1.476;2023-05-08T13:45:09;2.27;;;1.30;;
15645;SDS011;7922;43.622;1.476;2023-05-08T13:47:34;5.80;;;1.60;;
15645;SDS011;7922;43.622;1.476;2023-05-08T13:50:00;3.07;;;1.57;;
15645;SDS011;7922;43.622;1.476;2023-05-08T13:52:25;2.97;;;1.37;;
15645;SDS011;7922;43.622;1.476;2023-05-08T13:54:51;2.13;;;1.37;;
15645;SDS011;7922;43.622;1.476;2023-05-08T13:57:16;5.20;;;1.53;;
15645;SDS011;7922;43.622;1.476;2023-05-08T13:59:42;2.90;;;1.33;;
15645;SDS011;7922;43.622;1.476;2023-05-08T14:02:07;2.67;;;1.30;;
15645;SDS011;7922;43.622;1.476;2023-05-08T14:04:32;2.73;;;1.40;;
15645;SDS011;7922;43.622;1.476;2023-05-08T14:06:58;3.30;;;1.50;;
15645;SDS011;7922;43.622;1.476;2023-05-08T14:09:23;1.97;;;1.30;;
15645;SDS011;7922;43.622;1.476;2023-05-08T14:11:48;3.20;;;1.20;;
15645;SDS011;7922;43.622;1.476;2023-05-08T14:14:13;3.43;;;1.70;;
15645;SDS011;7922;43.622;1.476;2023-05-08T14:16:39;3.13;;;1.50;;
15645;SDS011;7922;43.622;1.476;2023-05-08T14:19:04;2.37;;;1.20;;
15645;SDS011;7922;43.622;1.476;2023-05-08T14:21:29;2.30;;;1.30;;
15645;SDS011;7922;43.622;1.476;2023-05-08T14:23:55;2.77;;;1.23;;
15645;SDS011;7922;43.622;1.476;2023-05-08T14:26:20;1.63;;;1.17;;
15645;SDS011;7922;43.622;1.476;2023-05-08T14:28:45;2.17;;;1.20;;
15645;SDS011;7922;43.622;1.476;2023-05-08T14:31:11;2.30;;;1.37;;
15645;SDS011;7922;43.622;1.476;2023-05-08T14:33:36;2.80;;;1.20;;
15645;SDS011;7922;43.622;1.476;2023-05-08T14:36:01;2.27;;;1.10;;
15645;SDS011;7922;43.622;1.476;2023-05-08T14:38:27;2.30;;;1.20;;
15645;SDS011;7922;43.622;1.476;2023-05-08T14:40:52;1.73;;;1.23;;
15645;SDS011;7922;43.622;1.476;2023-05-08T14:43:17;2.20;;;1.03;;
15645;SDS011;7922;43.622;1.476;2023-05-08T14:45:43;2.90;;;1.40;;
15645;SDS011;7922;43.622;1.476;2023-05-08T14:48:08;2.27;;;1.20;;
15645;SDS011;7922;43.622;1.476;2023-05-08T14:50:33;2.60;;;1.53;;
15645;SDS011;7922;43.622;1.476;2023-05-08T14:52:59;3.03;;;1.43;;
15645;SDS011;7922;43.622;1.476;2023-05-08T14:55:24;2.87;;;1.70;;
15645;SDS011;7922;43.622;1.476;2023-05-08T14:57:49;2.30;;;1.40;;
15645;SDS011;7922;43.622;1.476;2023-05-08T15:00:15;2.80;;;1.20;;
15645;SDS011;7922;43.622;1.476;2023-05-08T15:02:41;1.60;;;1.13;;
15645;SDS011;7922;43.622;1.476;2023-05-08T15:05:07;3.30;;;1.50;;
15645;SDS011;7922;43.622;1.476;2023-05-08T15:07:33;3.43;;;1.53;;
15645;SDS011;7922;43.622;1.476;2023-05-08T15:09:59;2.93;;;1.60;;
15645;SDS011;7922;43.622;1.476;2023-05-08T15:12:24;4.03;;;2.23;;
15645;SDS011;7922;43.622;1.476;2023-05-08T15:14:50;2.47;;;1.20;;
15645;SDS011;7922;43.622;1.476;2023-05-08T15:17:15;2.37;;;1.40;;
15645;SDS011;7922;43.622;1.476;2023-05-08T15:19:40;2.67;;;1.20;;
15645;SDS011;7922;43.622;1.476;2023-05-08T15:22:05;2.20;;;1.30;;
15645;SDS011;7922;43.622;1.476;2023-05-08T15:24:31;3.10;;;1.60;;
15645;SDS011;7922;43.622;1.476;2023-05-08T15:26:56;2.43;;;1.43;;
15645;SDS011;7922;43.622;1.476;2023-05-08T15:29:21;2.80;;;1.40;;
15645;SDS011;7922;43.622;1.476;2023-05-08T15:31:46;3.63;;;1.80;;
15645;SDS011;7922;43.622;1.476;2023-05-08T15:34:12;3.43;;;1.37;;
15645;SDS011;7922;43.622;1.476;2023-05-08T15:36:37;1.87;;;1.10;;
15645;SDS011;7922;43.622;1.476;2023-05-08T15:39:02;3.87;;;1.57;;
15645;SDS011;7922;43.622;1.476;2023-05-08T15:41:28;1.87;;;1.20;;
15645;SDS011;7922;43.622;1.476;2023-05-08T15:43:53;4.40;;;1.13;;